パース の空港の天気 - METARとTAF

パース空港 ( YPPH / PER ) - オーストラリア 西オーストラリア州パース
飛行場実況気象(Metar)
観測時間11/27 16:00 AWST (11/27 08:00 UTC)
風向・風速西南西 7m/s
視程10km以上
天気現象
なし
気温25℃
湿度41%
気圧1014hPa
METARYPPH 270800Z 25013KT CAVOK 25/11 Q1014
過去の天気等 Google飛行場航空写真 Wunderground天気予報

過去48時間のMETAR

飛行場予報(TAF)
発表時間: 11/27 16:08 AWST (11/27 08:08 UTC)
予報対象時間: 27日17時 AWST ~ 28日20時 AWST
風向・風速南西 8m/s
視程10km以上
なし
27日20時 AWST から
風向・風速南 5m/s
視程10km以上
なし
28日0時 AWST から
風向・風速東 8m/s 瞬間風速 14m/s
視程10km以上
なし
28日8時 AWST から
風向・風速東南東 6m/s
視程10km以上
なし
28日14時 AWST から
風向・風速南西 8m/s
視程10km以上
なし
TAF YPPH 270808Z 2709/2812 23015KT CAVOK
FM271200 19010KT CAVOK
FM271600 10016G28KT CAVOK
FM280000 11012KT CAVOK
FM280600 23015KT CAVOK